Pagina principale
METAR-TAF:

METAR-TAF

Aeroporti :

Aeroporto di Milano-Malpensa

Milano, Italia

latitudine: 45-37N, longitudine: 008-44E, altezza: 234 m

Osservazione

Il bollettino è stato emesso 20 minuti fa, alle 23:50 UTC
Vento 4 kt da nord/nord-est
Temperature 0°C
Umidità 93%
Pressione 1025 hPa
Visibilità: 8000 m

METAR: LIMC 172350Z 02004KT 8000 NSC 00/M01 Q1025 NOSIG

Ora: 01:10 (00:10 UTC)

Previsione

Il bollettino è stato emesso 1 ora e 10 minuti fa, alle 23:00 UTC
Previsione valida dal 18 alle 00 UTC al 19 alle 06 UTC
Vento 5 kt da direzioni variabili
Visibilità 10 km o più
nessuna nube inferiore a 1500 m e nessun cumulonembo
Temporaneamente
dal 18 alle 00 UTC al 18 alle 08 UTC
Visibilità: 3000 m
banchi di nebbia
Temporaneamente
dal 19 alle 00 UTC al 19 alle 06 UTC
Visibilità: 3000 m
banchi di nebbia

TAF: LIMC 172300Z 1800/1906 VRB05KT CAVOK TEMPO 1800/1808 3000 BCFG TEMPO 1900/1906 3000 BCFG

Osservazioni e previsioni meteorologiche di più di 4000 aeroporti (messaggi METAR e TAF).

Le stazioni disponibili sono rappresentate dai dischi gialli e rossi sulla carta.

Puntare il mouse per vedere il nome della stazione.

Clicca sopra per visualizzare le osservazioni e previsioni meteorologiche.

Per cambiare la mappa : fare clic sui pulsanti verdi con una croce nera per ingrandire, il pulsante verde con un trattino per diminuire, o sulla freccia verde per le mappe adiacenti.


METAR-TAF: